Time;durP1;ratioP1;P1;durP2;ratioP2;P2;SDS_P1;SDS_P2;PMS_P1;PMS_P2;Temp;Humidity;BMP_temperature;BMP_pressure;BME280_temperature;BME280_humidity;BME280_pressure;Samples;Min_cycle;Max_cycle;Signal;HPM_P1;HPM_P2
2022/09/12 00:01:50;;;;;;;0.30;0.30;;;;;;;;;;7390426;19;20121;-73
2022/09/12 00:04:16;;;;;;;0.30;0.30;;;;;;;;;;7390761;19;20148;-73
2022/09/12 00:06:41;;;;;;;0.30;0.30;;;;;;;;;;7392830;19;20220;-73
2022/09/12 00:09:11;;;;;;;0.30;0.30;;;;;;;;;;7390156;19;20141;-73
2022/09/12 00:11:38;;;;;;;0.30;0.30;;;;;;;;;;7391590;19;20496;-73
2022/09/12 00:14:04;;;;;;;0.30;0.30;;;;;;;;;;7388045;19;20128;-73
2022/09/12 00:16:32;;;;;;;0.30;0.30;;;;;;;;;;7391560;19;20113;-73
2022/09/12 00:18:58;;;;;;;0.30;0.30;;;;;;;;;;7389113;19;20182;-73
2022/09/12 00:21:24;;;;;;;0.30;0.30;;;;;;;;;;7392841;19;20586;-74
2022/09/12 00:23:49;;;;;;;0.30;0.30;;;;;;;;;;7386420;19;20149;-73
2022/09/12 00:26:16;;;;;;;0.30;0.30;;;;;;;;;;7390616;19;20109;-73
2022/09/12 00:28:42;;;;;;;0.30;0.30;;;;;;;;;;7388078;19;20153;-73
2022/09/12 00:31:10;;;;;;;0.30;0.30;;;;;;;;;;7387527;19;20106;-72
2022/09/12 00:33:36;;;;;;;0.30;0.30;;;;;;;;;;7388188;19;20125;-73
2022/09/12 00:36:07;;;;;;;0.30;0.30;;;;;;;;;;7390682;19;20139;-73
2022/09/12 00:38:32;;;;;;;0.30;0.30;;;;;;;;;;7392056;19;20133;-73
2022/09/12 00:40:57;;;;;;;0.30;0.30;;;;;;;;;;7390910;19;20648;-73
2022/09/12 00:43:40;;;;;;;0.30;0.30;;;;;;;;;;7386982;19;20129;-73
2022/09/12 00:46:23;;;;;;;0.30;0.30;;;;;;;;;;7390233;19;20109;-73
2022/09/12 00:48:53;;;;;;;0.30;0.30;;;;;;;;;;7384633;19;20128;-74
2022/09/12 00:51:19;;;;;;;0.30;0.30;;;;;;;;;;7383843;19;20117;-72
2022/09/12 00:53:45;;;;;;;0.30;0.30;;;;;;;;;;7375230;19;20135;-73
2022/09/12 00:56:13;;;;;;;0.30;0.30;;;;;;;;;;7384244;19;20123;-72
2022/09/12 00:58:47;;;;;;;0.33;0.33;;;;;;;;;;7383720;19;20106;-73
2022/09/12 01:01:13;;;;;;;0.30;0.30;;;;;;;;;;7383934;19;20557;-73
2022/09/12 01:03:38;;;;;;;0.30;0.30;;;;;;;;;;7381446;19;20138;-73
2022/09/12 01:06:15;;;;;;;0.30;0.30;;;;;;;;;;7380399;19;20110;-73
2022/09/12 01:08:42;;;;;;;0.30;0.30;;;;;;;;;;7384842;19;20125;-73
2022/09/12 01:11:09;;;;;;;0.30;0.30;;;;;;;;;;7386885;19;20105;-74
2022/09/12 01:13:35;;;;;;;0.30;0.30;;;;;;;;;;7386986;19;20129;-73
2022/09/12 01:16:03;;;;;;;0.30;0.30;;;;;;;;;;7383428;19;20125;-73
2022/09/12 01:18:57;;;;;;;0.30;0.30;;;;;;;;;;7384622;19;20129;-73
2022/09/12 01:21:33;;;;;;;0.30;0.30;;;;;;;;;;7384356;19;20713;-73
2022/09/12 01:24:20;;;;;;;0.30;0.30;;;;;;;;;;7381971;19;20156;-73
2022/09/12 01:26:56;;;;;;;0.40;0.40;;;;;;;;;;7384003;19;20105;-73
2022/09/12 01:29:55;;;;;;;0.30;0.30;;;;;;;;;;7380455;19;20357;-72
2022/09/12 01:32:46;;;;;;;0.30;0.30;;;;;;;;;;7383252;19;20225;-73
2022/09/12 01:35:50;;;;;;;0.30;0.30;;;;;;;;;;7384027;19;20109;-73
2022/09/12 01:38:26;;;;;;;0.30;0.30;;;;;;;;;;7383061;19;20112;-73
2022/09/12 01:41:03;;;;;;;0.30;0.30;;;;;;;;;;7382243;19;20142;-73
2022/09/12 01:43:51;;;;;;;0.30;0.30;;;;;;;;;;7382611;19;20450;-73
2022/09/12 01:46:48;;;;;;;0.30;0.30;;;;;;;;;;7381937;19;20626;-74
2022/09/12 01:49:27;;;;;;;0.30;0.30;;;;;;;;;;7379391;19;20143;-73
2022/09/12 01:51:58;;;;;;;0.30;0.30;;;;;;;;;;7385731;19;20144;-72
2022/09/12 01:54:28;;;;;;;0.30;0.30;;;;;;;;;;7382810;19;20125;-73
2022/09/12 01:56:57;;;;;;;0.30;0.30;;;;;;;;;;7383011;19;20105;-73
2022/09/12 01:59:33;;;;;;;0.30;0.30;;;;;;;;;;7383013;19;20345;-73
2022/09/12 02:02:30;;;;;;;0.30;0.30;;;;;;;;;;7383704;19;20132;-73
2022/09/12 02:05:03;;;;;;;0.30;0.30;;;;;;;;;;7377401;19;21110;-73
2022/09/12 02:07:39;;;;;;;0.30;0.30;;;;;;;;;;7382962;19;20125;-72
2022/09/12 02:10:18;;;;;;;0.30;0.30;;;;;;;;;;7383710;19;20109;-72
2022/09/12 02:12:51;;;;;;;0.30;0.30;;;;;;;;;;7383414;19;20136;-73
2022/09/12 02:15:20;;;;;;;0.30;0.30;;;;;;;;;;7382105;19;20117;-73
2022/09/12 02:17:49;;;;;;;0.30;0.30;;;;;;;;;;7382240;19;20139;-73
2022/09/12 02:20:30;;;;;;;0.30;0.30;;;;;;;;;;7382352;19;20117;-73
2022/09/12 02:22:56;;;;;;;0.30;0.30;;;;;;;;;;7380246;19;20131;-72
2022/09/12 02:25:23;;;;;;;0.30;0.30;;;;;;;;;;7380055;19;20185;-72
2022/09/12 02:27:53;;;;;;;0.30;0.30;;;;;;;;;;7383998;19;20132;-73
2022/09/12 02:30:19;;;;;;;0.30;0.30;;;;;;;;;;7379843;19;20488;-74
2022/09/12 02:33:10;;;;;;;0.40;0.40;;;;;;;;;;7383902;19;20143;-73
2022/09/12 02:35:46;;;;;;;0.30;0.30;;;;;;;;;;7381103;19;20113;-72
2022/09/12 02:38:32;;;;;;;0.30;0.30;;;;;;;;;;7379807;19;20109;-73
2022/09/12 02:40:58;;;;;;;0.30;0.30;;;;;;;;;;7380428;19;20125;-73
2022/09/12 02:43:23;;;;;;;0.30;0.30;;;;;;;;;;7382209;19;20125;-73
2022/09/12 02:45:49;;;;;;;0.50;0.50;;;;;;;;;;7378114;19;20467;-73
2022/09/12 02:48:19;;;;;;;0.30;0.30;;;;;;;;;;7378134;19;20110;-72
2022/09/12 02:50:44;;;;;;;0.30;0.30;;;;;;;;;;7382218;19;20148;-72
2022/09/12 02:53:10;;;;;;;0.30;0.30;;;;;;;;;;7383948;19;20651;-72
2022/09/12 02:55:36;;;;;;;0.30;0.30;;;;;;;;;;7379242;19;20625;-73
2022/09/12 02:58:04;;;;;;;0.30;0.30;;;;;;;;;;7382395;19;20529;-73
2022/09/12 03:00:34;;;;;;;0.30;0.30;;;;;;;;;;7379460;19;20489;-74
2022/09/12 03:02:59;;;;;;;0.30;0.30;;;;;;;;;;7382926;19;20153;-74
2022/09/12 03:05:29;;;;;;;0.30;0.30;;;;;;;;;;7383877;19;20196;-72
2022/09/12 03:08:12;;;;;;;0.30;0.30;;;;;;;;;;7387407;19;20110;-72
2022/09/12 03:10:40;;;;;;;0.30;0.30;;;;;;;;;;7383969;19;20112;-73
2022/09/12 03:13:28;;;;;;;0.30;0.30;;;;;;;;;;7383656;19;20157;-74
2022/09/12 03:16:05;;;;;;;0.57;0.57;;;;;;;;;;7387559;19;20112;-72
2022/09/12 03:18:39;;;;;;;0.30;0.30;;;;;;;;;;7384955;19;20125;-74
2022/09/12 03:21:25;;;;;;;0.50;0.50;;;;;;;;;;7385514;19;20104;-73
2022/09/12 03:24:00;;;;;;;0.40;0.40;;;;;;;;;;7382566;19;20146;-75
2022/09/12 03:26:30;;;;;;;0.40;0.40;;;;;;;;;;7384008;19;20575;-73
2022/09/12 03:28:58;;;;;;;0.30;0.30;;;;;;;;;;7383924;19;20493;-72
2022/09/12 03:31:23;;;;;;;0.40;0.40;;;;;;;;;;7383721;19;20129;-72
2022/09/12 03:33:48;;;;;;;0.30;0.30;;;;;;;;;;7382090;19;20121;-72
2022/09/12 03:36:25;;;;;;;0.40;0.40;;;;;;;;;;7382598;19;20180;-72
2022/09/12 03:38:51;;;;;;;0.50;0.50;;;;;;;;;;7380240;19;20646;-72
2022/09/12 03:41:17;;;;;;;0.30;0.30;;;;;;;;;;7382620;19;20139;-75
2022/09/12 03:43:43;;;;;;;0.40;0.40;;;;;;;;;;7380023;19;20144;-73
2022/09/12 03:46:08;;;;;;;0.30;0.30;;;;;;;;;;7376892;19;20503;-72
2022/09/12 03:48:34;;;;;;;0.63;0.50;;;;;;;;;;7379389;19;20501;-73
2022/09/12 03:51:04;;;;;;;0.30;0.30;;;;;;;;;;7382519;19;20459;-75
2022/09/12 03:53:30;;;;;;;0.30;0.30;;;;;;;;;;7382144;19;20153;-74
2022/09/12 03:55:56;;;;;;;0.57;0.57;;;;;;;;;;7381871;19;20536;-74
2022/09/12 03:58:22;;;;;;;0.30;0.30;;;;;;;;;;7384919;19;20154;-73
2022/09/12 04:00:47;;;;;;;0.30;0.30;;;;;;;;;;7381000;19;20113;-75
2022/09/12 04:03:12;;;;;;;0.30;0.30;;;;;;;;;;7382084;19;20153;-72
2022/09/12 04:05:38;;;;;;;0.30;0.30;;;;;;;;;;7380534;19;20105;-74
2022/09/12 04:08:03;;;;;;;0.30;0.30;;;;;;;;;;7382593;19;20463;-72
2022/09/12 04:10:28;;;;;;;0.30;0.30;;;;;;;;;;7379924;19;20630;-73
2022/09/12 04:12:54;;;;;;;0.30;0.30;;;;;;;;;;7382602;19;20125;-74
2022/09/12 04:15:19;;;;;;;0.30;0.30;;;;;;;;;;7382210;19;20106;-72
2022/09/12 04:17:44;;;;;;;0.30;0.30;;;;;;;;;;7380432;19;20596;-73
2022/09/12 04:20:10;;;;;;;0.30;0.30;;;;;;;;;;7379963;19;20117;-73
2022/09/12 04:22:35;;;;;;;0.30;0.30;;;;;;;;;;7380530;19;20109;-73
2022/09/12 04:25:00;;;;;;;0.30;0.30;;;;;;;;;;7378319;19;20138;-75
2022/09/12 04:27:26;;;;;;;0.30;0.30;;;;;;;;;;7381489;19;20109;-73
2022/09/12 04:29:51;;;;;;;0.30;0.30;;;;;;;;;;7380597;19;20603;-73
2022/09/12 04:32:17;;;;;;;0.20;0.20;;;;;;;;;;7378813;19;20125;-74
2022/09/12 04:34:43;;;;;;;0.30;0.30;;;;;;;;;;7380940;19;20423;-75
2022/09/12 04:37:10;;;;;;;0.30;0.30;;;;;;;;;;7380983;19;20117;-73
2022/09/12 04:39:35;;;;;;;0.30;0.30;;;;;;;;;;7378444;19;20640;-73
2022/09/12 04:42:03;;;;;;;0.30;0.30;;;;;;;;;;7381755;19;20113;-72
2022/09/12 04:44:28;;;;;;;0.30;0.30;;;;;;;;;;7378482;19;20161;-73
2022/09/12 06:45:00;;;;;;;0.30;0.30;;;;;;;;;;7386874;19;20292;-74
2022/09/12 06:47:25;;;;;;;0.57;0.57;;;;;;;;;;7387941;19;20579;-74
2022/09/12 06:49:51;;;;;;;0.53;0.53;;;;;;;;;;7386893;19;20824;-74
2022/09/12 06:52:16;;;;;;;0.60;0.60;;;;;;;;;;7387487;19;20118;-74
2022/09/12 06:54:42;;;;;;;0.77;0.77;;;;;;;;;;7386791;19;20501;-73
2022/09/12 06:57:07;;;;;;;1.83;1.73;;;;;;;;;;7387404;19;20508;-74
2022/09/12 06:59:33;;;;;;;0.73;0.40;;;;;;;;;;7387702;19;20177;-74
2022/09/12 07:01:58;;;;;;;1.33;1.33;;;;;;;;;;7381244;19;20184;-74
2022/09/12 07:04:23;;;;;;;0.43;0.43;;;;;;;;;;7386571;19;20121;-74
2022/09/12 07:06:49;;;;;;;0.47;0.47;;;;;;;;;;7379380;19;20453;-74
2022/09/12 07:09:17;;;;;;;0.40;0.40;;;;;;;;;;7380942;19;20121;-73
2022/09/12 07:11:42;;;;;;;0.40;0.40;;;;;;;;;;7383985;19;20496;-71
2022/09/12 07:14:10;;;;;;;1.23;0.63;;;;;;;;;;7383076;19;20140;-71
2022/09/12 07:16:36;;;;;;;0.60;0.60;;;;;;;;;;7385832;19;20129;-73
2022/09/12 07:19:03;;;;;;;0.37;0.37;;;;;;;;;;7384266;19;20603;-73
2022/09/12 07:21:29;;;;;;;1.10;0.83;;;;;;;;;;7385842;19;20614;-72
2022/09/12 07:23:56;;;;;;;0.30;0.30;;;;;;;;;;7383181;19;20125;-74
2022/09/12 07:26:22;;;;;;;0.30;0.30;;;;;;;;;;7385700;19;20555;-75
2022/09/12 07:28:54;;;;;;;0.30;0.30;;;;;;;;;;7386331;19;20121;-73
2022/09/12 07:31:21;;;;;;;0.40;0.40;;;;;;;;;;7385255;19;20200;-74
2022/09/12 07:33:47;;;;;;;0.30;0.30;;;;;;;;;;7382726;19;20181;-73
2022/09/12 07:36:15;;;;;;;0.30;0.30;;;;;;;;;;7382710;19;20141;-72
2022/09/12 07:38:40;;;;;;;0.30;0.30;;;;;;;;;;7386738;19;20130;-74
2022/09/12 07:41:20;;;;;;;0.30;0.30;;;;;;;;;;7386234;19;20113;-73
2022/09/12 07:43:46;;;;;;;0.30;0.30;;;;;;;;;;7377067;19;20593;-73
2022/09/12 07:46:11;;;;;;;0.30;0.30;;;;;;;;;;7377545;19;20178;-72
2022/09/12 07:48:38;;;;;;;0.20;0.20;;;;;;;;;;7374867;19;20109;-74
2022/09/12 07:51:05;;;;;;;0.30;0.30;;;;;;;;;;7379982;19;20209;-74
2022/09/12 07:53:36;;;;;;;0.30;0.30;;;;;;;;;;7375401;19;20586;-73
2022/09/12 07:56:03;;;;;;;0.30;0.30;;;;;;;;;;7376285;19;20954;-74
2022/09/12 07:58:29;;;;;;;0.30;0.30;;;;;;;;;;7375729;19;20239;-74
2022/09/12 08:01:03;;;;;;;0.30;0.30;;;;;;;;;;7380857;19;20571;-73
2022/09/12 08:03:29;;;;;;;0.30;0.30;;;;;;;;;;7383209;19;20148;-74
2022/09/12 08:05:54;;;;;;;0.30;0.30;;;;;;;;;;7381811;19;20136;-72
2022/09/12 08:08:19;;;;;;;0.30;0.30;;;;;;;;;;7381102;19;20125;-74
2022/09/12 08:10:45;;;;;;;0.30;0.30;;;;;;;;;;7384083;19;20101;-74
2022/09/12 08:13:10;;;;;;;0.30;0.30;;;;;;;;;;7379974;19;20125;-72
2022/09/12 08:15:35;;;;;;;0.30;0.30;;;;;;;;;;7383238;19;20483;-74
2022/09/12 08:18:01;;;;;;;0.40;0.40;;;;;;;;;;7384484;19;20121;-74
2022/09/12 08:20:26;;;;;;;1.02;1.02;;;;;;;;;;7384343;19;20166;-72
2022/09/12 08:22:51;;;;;;;0.30;0.30;;;;;;;;;;7392055;19;20121;-74
2022/09/12 08:25:17;;;;;;;0.30;0.30;;;;;;;;;;7392314;19;20188;-73
2022/09/12 08:27:42;;;;;;;0.60;0.60;;;;;;;;;;7392762;19;20466;-74
2022/09/12 08:30:08;;;;;;;0.30;0.30;;;;;;;;;;7391652;19;20117;-74
2022/09/12 08:32:34;;;;;;;0.40;0.40;;;;;;;;;;7390246;19;20192;-74
2022/09/12 08:35:00;;;;;;;0.30;0.30;;;;;;;;;;7390135;19;20144;-73
2022/09/12 08:37:29;;;;;;;0.40;0.40;;;;;;;;;;7390759;19;20105;-73
2022/09/12 08:39:54;;;;;;;0.20;0.20;;;;;;;;;;7389872;19;20162;-74
2022/09/12 08:42:46;;;;;;;1.58;1.02;;;;;;;;;;7390574;19;20113;-74
2022/09/12 08:45:40;;;;;;;0.30;0.30;;;;;;;;;;7388866;19;20169;-73
2022/09/12 08:48:08;;;;;;;0.30;0.30;;;;;;;;;;7389191;19;20144;-74
2022/09/12 08:50:33;;;;;;;0.30;0.30;;;;;;;;;;7387633;19;20109;-72
2022/09/12 08:53:04;;;;;;;0.30;0.30;;;;;;;;;;7388775;19;20172;-75
2022/09/12 08:55:39;;;;;;;0.40;0.40;;;;;;;;;;7389264;19;20775;-74
2022/09/12 08:58:21;;;;;;;2.92;1.05;;;;;;;;;;7389543;19;20117;-74
2022/09/12 09:01:01;;;;;;;0.30;0.30;;;;;;;;;;7387871;19;20117;-71
2022/09/12 09:03:43;;;;;;;0.30;0.30;;;;;;;;;;7389334;19;20132;-73
2022/09/12 09:06:24;;;;;;;0.30;0.30;;;;;;;;;;7385608;19;20137;-75
2022/09/12 09:09:32;;;;;;;0.30;0.30;;;;;;;;;;7389217;19;20506;-73
2022/09/12 09:12:11;;;;;;;0.30;0.30;;;;;;;;;;7385161;19;20200;-74
2022/09/12 09:15:00;;;;;;;0.30;0.30;;;;;;;;;;7386396;19;20129;-73
2022/09/12 09:17:40;;;;;;;0.30;0.30;;;;;;;;;;7389435;19;20474;-74
2022/09/12 09:20:30;;;;;;;0.30;0.30;;;;;;;;;;7388578;19;20583;-74
2022/09/12 09:23:02;;;;;;;0.30;0.30;;;;;;;;;;7389640;19;20118;-73
2022/09/12 09:25:49;;;;;;;0.40;0.40;;;;;;;;;;7388038;19;20109;-73
2022/09/12 09:28:24;;;;;;;0.30;0.30;;;;;;;;;;7388410;19;20148;-74
2022/09/12 09:30:50;;;;;;;0.30;0.30;;;;;;;;;;7387568;19;20121;-74
2022/09/12 09:33:24;;;;;;;0.45;0.45;;;;;;;;;;7387463;19;20132;-74
2022/09/12 09:35:55;;;;;;;0.40;0.40;;;;;;;;;;7388916;19;20117;-74
2022/09/12 09:38:41;;;;;;;0.30;0.30;;;;;;;;;;7387750;19;20138;-72
2022/09/12 09:41:25;;;;;;;0.40;0.40;;;;;;;;;;7388438;19;20224;-74
2022/09/12 09:43:50;;;;;;;0.38;0.38;;;;;;;;;;7387425;19;20563;-74
2022/09/12 09:46:15;;;;;;;0.40;0.40;;;;;;;;;;7387149;19;20133;-74
2022/09/12 09:48:45;;;;;;;0.35;0.35;;;;;;;;;;7388325;19;20125;-75
2022/09/12 09:51:10;;;;;;;0.60;0.38;;;;;;;;;;7387279;19;20125;-73
2022/09/12 09:53:41;;;;;;;0.38;0.38;;;;;;;;;;7386754;19;20164;-74
2022/09/12 09:56:11;;;;;;;0.30;0.30;;;;;;;;;;7388254;19;20125;-74
2022/09/12 09:58:38;;;;;;;0.30;0.30;;;;;;;;;;7387269;19;20121;-74
2022/09/12 10:01:05;;;;;;;0.30;0.30;;;;;;;;;;7387098;19;20643;-74
2022/09/12 10:03:36;;;;;;;0.30;0.30;;;;;;;;;;7386081;19;20554;-74
2022/09/12 10:06:07;;;;;;;0.30;0.30;;;;;;;;;;7386372;19;20113;-75
2022/09/12 10:08:35;;;;;;;0.30;0.30;;;;;;;;;;7387335;19;20225;-74
2022/09/12 10:11:17;;;;;;;0.70;0.70;;;;;;;;;;7386716;19;20480;-74
2022/09/12 10:13:50;;;;;;;0.38;0.38;;;;;;;;;;7385835;19;20121;-74
2022/09/12 10:16:18;;;;;;;0.30;0.30;;;;;;;;;;7387542;19;20212;-74
2022/09/12 10:18:44;;;;;;;0.30;0.30;;;;;;;;;;7388032;19;20124;-74
2022/09/12 10:21:38;;;;;;;0.30;0.30;;;;;;;;;;7387099;19;20101;-74
2022/09/12 10:24:23;;;;;;;0.30;0.30;;;;;;;;;;7385387;19;20507;-74
2022/09/12 10:26:52;;;;;;;0.30;0.30;;;;;;;;;;7385508;19;20105;-75
2022/09/12 10:29:22;;;;;;;0.30;0.30;;;;;;;;;;7386543;19;20137;-73
2022/09/12 10:31:51;;;;;;;0.63;0.57;;;;;;;;;;7385390;19;20117;-75
2022/09/12 10:34:29;;;;;;;0.30;0.30;;;;;;;;;;7384686;19;20121;-74
2022/09/12 10:36:59;;;;;;;0.30;0.30;;;;;;;;;;7387378;19;20105;-74
2022/09/12 10:39:25;;;;;;;0.52;0.52;;;;;;;;;;7386749;19;20106;-75
2022/09/12 10:41:50;;;;;;;0.50;0.50;;;;;;;;;;7384555;19;20114;-74
2022/09/12 10:44:18;;;;;;;0.30;0.30;;;;;;;;;;7384981;19;20121;-73
2022/09/12 10:46:44;;;;;;;0.40;0.40;;;;;;;;;;7384000;19;20142;-74
2022/09/12 10:49:23;;;;;;;0.40;0.40;;;;;;;;;;7385633;19;20129;-72
2022/09/12 10:51:48;;;;;;;0.35;0.35;;;;;;;;;;7384998;19;20156;-73
2022/09/12 10:54:17;;;;;;;0.30;0.30;;;;;;;;;;7384527;19;20152;-74
2022/09/12 10:56:54;;;;;;;0.40;0.40;;;;;;;;;;7385920;19;20545;-73
2022/09/12 10:59:43;;;;;;;0.47;0.47;;;;;;;;;;7385525;19;20145;-74
2022/09/12 11:02:28;;;;;;;0.32;0.32;;;;;;;;;;7385563;19;20470;-74
2022/09/12 11:05:25;;;;;;;0.40;0.40;;;;;;;;;;7382686;19;20223;-75
2022/09/12 11:07:53;;;;;;;0.30;0.30;;;;;;;;;;7385144;19;20598;-74
2022/09/12 11:10:56;;;;;;;0.30;0.30;;;;;;;;;;7385401;19;20136;-74
2022/09/12 11:13:43;;;;;;;0.30;0.30;;;;;;;;;;7384826;19;20163;-74
2022/09/12 11:16:27;;;;;;;0.40;0.40;;;;;;;;;;7387450;19;20551;-74
2022/09/12 11:19:20;;;;;;;0.30;0.30;;;;;;;;;;7387408;19;20470;-74
2022/09/12 11:21:51;;;;;;;0.28;0.28;;;;;;;;;;7384572;19;20142;-74
2022/09/12 11:24:25;;;;;;;0.30;0.30;;;;;;;;;;7384740;19;20526;-74
2022/09/12 11:27:12;;;;;;;0.40;0.40;;;;;;;;;;7381977;19;20552;-74
2022/09/12 11:29:47;;;;;;;0.30;0.30;;;;;;;;;;7386150;19;20204;-74
2022/09/12 11:32:34;;;;;;;0.40;0.40;;;;;;;;;;7385675;19;20183;-74
2022/09/12 11:35:26;;;;;;;0.30;0.30;;;;;;;;;;7384761;19;20196;-74
2022/09/12 11:38:22;;;;;;;0.75;0.63;;;;;;;;;;7384157;19;20591;-74
2022/09/12 11:41:00;;;;;;;0.32;0.32;;;;;;;;;;7384793;19;20129;-73
2022/09/12 11:43:39;;;;;;;0.50;0.50;;;;;;;;;;7385101;19;20160;-74
2022/09/12 11:46:43;;;;;;;0.70;0.47;;;;;;;;;;7382932;19;20124;-74
2022/09/12 11:49:12;;;;;;;0.40;0.40;;;;;;;;;;7386845;19;20142;-74
2022/09/12 11:52:03;;;;;;;0.30;0.30;;;;;;;;;;7382989;19;20128;-74
2022/09/12 11:54:35;;;;;;;0.40;0.40;;;;;;;;;;7381537;19;20151;-74
2022/09/12 11:57:15;;;;;;;0.45;0.45;;;;;;;;;;7384529;19;20503;-74
2022/09/12 12:00:04;;;;;;;1.70;0.57;;;;;;;;;;7384391;19;20120;-75
2022/09/12 12:02:35;;;;;;;0.40;0.40;;;;;;;;;;7386235;19;20109;-75
2022/09/12 12:05:19;;;;;;;0.40;0.40;;;;;;;;;;7385076;19;20113;-74
2022/09/12 12:07:55;;;;;;;0.50;0.50;;;;;;;;;;7382708;19;20132;-75
2022/09/12 12:10:31;;;;;;;0.50;0.50;;;;;;;;;;7383793;19;20112;-74
2022/09/12 12:12:57;;;;;;;0.50;0.50;;;;;;;;;;7387151;19;20138;-75
2022/09/12 12:15:23;;;;;;;0.40;0.40;;;;;;;;;;7384606;19;20137;-74
2022/09/12 12:18:04;;;;;;;0.38;0.38;;;;;;;;;;7381871;19;20630;-74
2022/09/12 12:20:30;;;;;;;0.68;0.68;;;;;;;;;;7385734;19;20108;-74
2022/09/12 12:22:56;;;;;;;0.60;0.60;;;;;;;;;;7380450;19;20588;-74
2022/09/12 12:25:25;;;;;;;0.40;0.40;;;;;;;;;;7383629;19;20118;-74
2022/09/12 12:27:53;;;;;;;0.50;0.50;;;;;;;;;;7385189;19;20109;-74
2022/09/12 12:30:53;;;;;;;0.50;0.50;;;;;;;;;;7384844;19;20116;-74
2022/09/12 12:33:19;;;;;;;0.50;0.50;;;;;;;;;;7384159;19;20152;-74
2022/09/12 12:36:02;;;;;;;0.50;0.50;;;;;;;;;;7385127;19;20452;-74
2022/09/12 12:38:32;;;;;;;0.50;0.50;;;;;;;;;;7384728;19;20108;-74
2022/09/12 12:41:15;;;;;;;0.50;0.50;;;;;;;;;;7385438;19;20112;-75
2022/09/12 12:43:40;;;;;;;0.50;0.50;;;;;;;;;;7380289;19;20148;-75
2022/09/12 12:46:08;;;;;;;0.50;0.50;;;;;;;;;;7381456;19;20105;-74
2022/09/12 12:48:53;;;;;;;0.68;0.68;;;;;;;;;;7380835;19;20108;-74
2022/09/12 12:51:27;;;;;;;0.57;0.57;;;;;;;;;;7371585;19;20198;-74
2022/09/12 12:53:53;;;;;;;0.60;0.60;;;;;;;;;;7379287;19;20120;-74
2022/09/12 12:56:45;;;;;;;0.40;0.40;;;;;;;;;;7381788;19;20105;-74
2022/09/12 12:59:18;;;;;;;0.70;0.70;;;;;;;;;;7377693;19;20132;-74
2022/09/12 13:01:52;;;;;;;0.50;0.50;;;;;;;;;;7379981;19;20638;-74
2022/09/12 13:04:20;;;;;;;0.52;0.52;;;;;;;;;;7379032;19;20650;-74
2022/09/12 13:07:04;;;;;;;0.52;0.52;;;;;;;;;;7379499;19;20555;-73
2022/09/12 13:09:43;;;;;;;0.50;0.50;;;;;;;;;;7385326;19;20172;-74
2022/09/12 13:12:20;;;;;;;0.50;0.50;;;;;;;;;;7388656;19;20132;-74
2022/09/12 13:14:45;;;;;;;0.60;0.60;;;;;;;;;;7382852;19;20649;-74
2022/09/12 13:17:21;;;;;;;0.60;0.60;;;;;;;;;;7385184;19;20128;-74
2022/09/12 13:19:47;;;;;;;0.50;0.50;;;;;;;;;;7388386;19;20112;-74
2022/09/12 13:22:13;;;;;;;0.47;0.47;;;;;;;;;;7384584;19;20125;-74
2022/09/12 13:24:43;;;;;;;0.50;0.50;;;;;;;;;;7382571;19;20173;-74
2022/09/12 13:27:28;;;;;;;0.40;0.40;;;;;;;;;;7382893;19;20212;-74
2022/09/12 13:30:14;;;;;;;0.57;0.52;;;;;;;;;;7387753;19;20104;-74
2022/09/12 13:32:40;;;;;;;0.40;0.40;;;;;;;;;;7376592;19;20526;-74
2022/09/12 13:35:28;;;;;;;0.60;0.60;;;;;;;;;;7386802;19;20128;-74
2022/09/12 13:38:02;;;;;;;4.22;1.20;;;;;;;;;;7384961;19;20109;-75
2022/09/12 13:41:11;;;;;;;0.40;0.40;;;;;;;;;;7388620;19;20130;-74
2022/09/12 13:43:40;;;;;;;0.57;0.57;;;;;;;;;;7381514;19;20571;-74
2022/09/12 13:46:07;;;;;;;0.40;0.40;;;;;;;;;;7386067;19;20587;-75
2022/09/12 13:48:32;;;;;;;0.40;0.40;;;;;;;;;;7381505;19;20120;-74
2022/09/12 13:50:59;;;;;;;0.40;0.40;;;;;;;;;;7380064;19;20502;-74
2022/09/12 13:53:29;;;;;;;0.43;0.43;;;;;;;;;;7376680;19;20121;-74
2022/09/12 13:55:58;;;;;;;0.50;0.50;;;;;;;;;;7383241;19;20109;-74
2022/09/12 13:58:29;;;;;;;0.40;0.40;;;;;;;;;;7386063;19;20117;-74
2022/09/12 14:07:11;;;;;;;0.50;0.50;;;;;;;;;;7383477;19;20115;-73
2022/09/12 14:09:40;;;;;;;0.90;0.90;;;;;;;;;;7385277;19;20610;-74
2022/09/12 14:12:17;;;;;;;0.40;0.40;;;;;;;;;;7382898;19;20148;-74
2022/09/12 14:14:44;;;;;;;0.75;0.50;;;;;;;;;;7386479;19;20152;-73
2022/09/12 14:17:17;;;;;;;0.40;0.40;;;;;;;;;;7385556;19;20128;-73
2022/09/12 14:19:43;;;;;;;0.40;0.40;;;;;;;;;;7387561;19;20117;-73
2022/09/12 14:22:16;;;;;;;0.40;0.40;;;;;;;;;;7385386;19;20196;-75
2022/09/12 14:24:44;;;;;;;0.40;0.40;;;;;;;;;;7385092;19;20483;-75
2022/09/12 14:27:10;;;;;;;0.40;0.40;;;;;;;;;;7384441;19;20105;-75
2022/09/12 14:29:35;;;;;;;1.33;0.55;;;;;;;;;;7381923;19;20124;-74
2022/09/12 14:32:02;;;;;;;0.40;0.40;;;;;;;;;;7380444;19;20106;-72
2022/09/12 14:34:28;;;;;;;0.40;0.40;;;;;;;;;;7383832;19;20145;-74
2022/09/12 14:36:55;;;;;;;0.40;0.40;;;;;;;;;;7385467;19;20128;-74
2022/09/12 14:39:36;;;;;;;0.30;0.30;;;;;;;;;;7382976;19;20120;-75
2022/09/12 14:42:06;;;;;;;0.40;0.40;;;;;;;;;;7379228;19;20156;-74
2022/09/12 14:44:32;;;;;;;0.40;0.40;;;;;;;;;;7379210;19;20168;-74
2022/09/12 14:47:10;;;;;;;0.45;0.45;;;;;;;;;;7376900;19;20148;-74
2022/09/12 14:49:36;;;;;;;0.40;0.40;;;;;;;;;;7384407;19;20105;-74
2022/09/12 14:52:07;;;;;;;0.30;0.30;;;;;;;;;;7382900;19;20180;-72
2022/09/12 14:54:36;;;;;;;0.40;0.40;;;;;;;;;;7383375;19;20137;-74
2022/09/12 14:57:24;;;;;;;0.40;0.40;;;;;;;;;;7376944;19;20152;-73
2022/09/12 14:59:50;;;;;;;0.40;0.40;;;;;;;;;;7381573;19;20313;-74
2022/09/12 15:02:21;;;;;;;0.52;0.52;;;;;;;;;;7380280;19;20177;-75
2022/09/12 15:04:49;;;;;;;0.30;0.30;;;;;;;;;;7381927;19;20133;-74
2022/09/12 15:07:40;;;;;;;0.40;0.40;;;;;;;;;;7379478;19;20121;-74
2022/09/12 15:10:16;;;;;;;0.30;0.30;;;;;;;;;;7377300;19;20128;-75
2022/09/12 15:12:41;;;;;;;0.30;0.30;;;;;;;;;;7379984;19;20168;-75
2022/09/12 15:15:14;;;;;;;0.70;0.70;;;;;;;;;;7380498;19;20486;-75
2022/09/12 15:17:39;;;;;;;0.30;0.30;;;;;;;;;;7377254;19;20144;-73
2022/09/12 15:20:05;;;;;;;0.30;0.30;;;;;;;;;;7370084;19;20121;-73
2022/09/12 15:22:31;;;;;;;0.30;0.30;;;;;;;;;;7372672;19;20204;-74
2022/09/12 15:24:57;;;;;;;0.30;0.30;;;;;;;;;;7366328;19;20180;-74
2022/09/12 15:27:24;;;;;;;0.30;0.30;;;;;;;;;;7367859;19;20113;-71
2022/09/12 15:33:11;;;;;;;0.30;0.30;;;;;;;;;;7382565;19;20479;-73
2022/09/12 15:35:36;;;;;;;0.40;0.40;;;;;;;;;;7385556;19;20121;-73
2022/09/12 15:38:01;;;;;;;0.30;0.30;;;;;;;;;;7382454;19;20188;-73
2022/09/12 15:40:27;;;;;;;0.32;0.32;;;;;;;;;;7379267;19;20137;-75
2022/09/12 15:42:52;;;;;;;0.40;0.40;;;;;;;;;;7385316;19;20122;-73
2022/09/12 15:45:19;;;;;;;0.50;0.50;;;;;;;;;;7373069;19;20110;-73
2022/09/12 15:47:45;;;;;;;0.40;0.40;;;;;;;;;;7374027;19;20121;-75
2022/09/12 15:50:10;;;;;;;0.93;0.50;;;;;;;;;;7377107;19;20160;-73
2022/09/12 15:52:36;;;;;;;0.30;0.30;;;;;;;;;;7378453;19;20113;-75
2022/09/12 15:55:02;;;;;;;0.30;0.30;;;;;;;;;;7380847;19;20112;-74
2022/09/12 15:57:28;;;;;;;0.45;0.45;;;;;;;;;;7377426;19;20158;-74
2022/09/12 15:59:53;;;;;;;0.30;0.30;;;;;;;;;;7371005;19;20124;-75
2022/09/12 16:02:18;;;;;;;0.30;0.30;;;;;;;;;;7377785;19;20461;-74
2022/09/12 16:04:45;;;;;;;0.30;0.30;;;;;;;;;;7374639;19;20113;-74
2022/09/12 16:07:10;;;;;;;0.30;0.30;;;;;;;;;;7375987;19;20133;-74
2022/09/12 16:09:36;;;;;;;0.30;0.30;;;;;;;;;;7380395;19;20121;-73
2022/09/12 16:12:01;;;;;;;0.30;0.30;;;;;;;;;;7383222;19;20187;-73
2022/09/12 16:14:26;;;;;;;0.30;0.30;;;;;;;;;;7380847;19;20121;-73
2022/09/12 16:16:53;;;;;;;0.30;0.30;;;;;;;;;;7379322;19;20113;-73
2022/09/12 16:19:18;;;;;;;0.30;0.30;;;;;;;;;;7377744;19;20197;-74
2022/09/12 16:21:44;;;;;;;0.20;0.20;;;;;;;;;;7376417;19;20137;-73
2022/09/12 16:24:09;;;;;;;0.30;0.30;;;;;;;;;;7380441;19;20508;-73
2022/09/12 16:26:34;;;;;;;0.35;0.35;;;;;;;;;;7379493;19;20129;-74
2022/09/12 16:29:00;;;;;;;0.30;0.30;;;;;;;;;;7378563;19;20554;-74
2022/09/12 16:31:26;;;;;;;0.30;0.30;;;;;;;;;;7378346;19;20121;-73
2022/09/12 16:33:51;;;;;;;0.30;0.30;;;;;;;;;;7372490;19;20435;-73
2022/09/12 16:36:19;;;;;;;0.47;0.47;;;;;;;;;;7378442;19;20109;-73
2022/09/12 16:38:52;;;;;;;0.30;0.30;;;;;;;;;;7377568;19;20479;-73
2022/09/12 16:41:19;;;;;;;0.30;0.30;;;;;;;;;;7375879;19;20593;-73
2022/09/12 16:43:45;;;;;;;0.30;0.30;;;;;;;;;;7381621;19;20578;-73
2022/09/12 16:46:12;;;;;;;0.30;0.30;;;;;;;;;;7378604;19;20132;-73
2022/09/12 16:49:47;;;;;;;0.40;0.40;;;;;;;;;;7371898;19;20668;-73
2022/09/12 16:52:15;;;;;;;0.30;0.30;;;;;;;;;;7387446;19;20511;-73
2022/09/12 16:54:41;;;;;;;0.30;0.30;;;;;;;;;;7387422;19;20143;-75
2022/09/12 16:57:12;;;;;;;0.35;0.35;;;;;;;;;;7390554;19;20117;-72
2022/09/12 16:59:37;;;;;;;0.30;0.30;;;;;;;;;;7389627;19;20586;-75
2022/09/12 17:02:03;;;;;;;0.65;0.65;;;;;;;;;;7381751;19;20121;-73
2022/09/12 17:04:38;;;;;;;0.40;0.40;;;;;;;;;;7379577;19;20133;-73
2022/09/12 17:07:03;;;;;;;0.30;0.30;;;;;;;;;;7384074;19;20192;-73
2022/09/12 17:09:28;;;;;;;0.70;0.70;;;;;;;;;;7384990;19;20125;-73
2022/09/12 17:11:55;;;;;;;0.30;0.30;;;;;;;;;;7384430;19;20192;-74
2022/09/12 17:14:20;;;;;;;0.30;0.30;;;;;;;;;;7383429;19;20136;-74
2022/09/12 17:16:46;;;;;;;1.70;1.15;;;;;;;;;;7381225;19;20481;-74
2022/09/12 17:19:28;;;;;;;0.30;0.30;;;;;;;;;;7384370;19;20402;-74